Time;durP1;ratioP1;P1;durP2;ratioP2;P2;SDS_P1;SDS_P2;PMS_P1;PMS_P2;Temp;Humidity;BMP_temperature;BMP_pressure;BME280_temperature;BME280_humidity;BME280_pressure;Samples;Min_cycle;Max_cycle;Signal;HPM_P1;HPM_P2
2023/09/11 00:01:22;;;;;;;25.10;9.23;;;19.30;99.90;;;;;;5089505;28;20475;-79
2023/09/11 00:03:50;;;;;;;22.97;8.03;;;19.40;99.90;;;;;;5088917;28;20444;-79
2023/09/11 00:06:17;;;;;;;14.37;8.13;;;19.40;99.90;;;;;;5088893;28;20447;-80
2023/09/11 00:08:44;;;;;;;24.03;7.77;;;19.40;99.90;;;;;;5090697;28;20442;-79
2023/09/11 00:11:10;;;;;;;25.43;9.40;;;19.40;99.90;;;;;;5089739;28;20497;-79
2023/09/11 00:13:37;;;;;;;20.23;9.03;;;19.40;99.90;;;;;;5090952;28;20512;-78
2023/09/11 00:16:04;;;;;;;30.80;8.90;;;19.30;99.90;;;;;;5091088;28;20486;-80
2023/09/11 00:18:30;;;;;;;24.40;9.53;;;19.30;99.90;;;;;;5090656;28;20455;-79
2023/09/11 00:20:58;;;;;;;29.43;9.47;;;19.30;99.90;;;;;;5091851;28;20458;-79
2023/09/11 00:23:25;;;;;;;23.13;8.03;;;19.30;99.90;;;;;;5091255;28;20478;-79
2023/09/11 00:25:52;;;;;;;27.60;9.63;;;19.30;99.90;;;;;;5091512;28;20447;-79
2023/09/11 00:28:19;;;;;;;16.80;8.40;;;19.30;99.90;;;;;;5091981;28;20475;-80
2023/09/11 00:30:45;;;;;;;22.03;8.40;;;19.20;99.90;;;;;;5091357;28;20542;-79
2023/09/11 00:33:12;;;;;;;14.70;8.10;;;19.20;99.90;;;;;;5092659;28;20407;-79
2023/09/11 00:35:38;;;;;;;18.73;8.00;;;19.20;99.90;;;;;;5092176;28;20516;-79
2023/09/11 00:38:06;;;;;;;19.50;8.80;;;19.10;99.90;;;;;;5091160;28;20997;-80
2023/09/11 00:40:34;;;;;;;20.10;8.40;;;19.10;99.90;;;;;;5082279;28;20447;-79
2023/09/11 00:43:01;;;;;;;25.63;9.07;;;19.00;99.90;;;;;;5090191;28;20452;-80
2023/09/11 00:45:28;;;;;;;23.00;8.00;;;19.00;99.90;;;;;;5090205;28;20446;-79
2023/09/11 00:47:54;;;;;;;27.57;9.00;;;19.10;99.90;;;;;;5081023;28;20452;-79
2023/09/11 00:50:23;;;;;;;25.07;8.70;;;19.00;99.90;;;;;;5089695;28;20451;-79
2023/09/11 00:52:50;;;;;;;25.23;9.10;;;18.90;99.90;;;;;;5088663;28;20468;-79
2023/09/11 00:55:19;;;;;;;16.87;8.33;;;18.90;99.90;;;;;;5087449;28;20483;-79
2023/09/11 00:57:45;;;;;;;21.47;7.83;;;18.80;99.90;;;;;;5088369;28;20452;-79
2023/09/11 01:00:14;;;;;;;25.57;8.63;;;18.90;99.90;;;;;;5082074;28;20443;-81
2023/09/11 01:02:41;;;;;;;18.83;8.23;;;18.80;99.90;;;;;;5091714;28;20467;-79
2023/09/11 01:05:09;;;;;;;24.30;8.23;;;18.80;99.90;;;;;;5091724;28;20423;-79
2023/09/11 01:07:36;;;;;;;25.47;9.00;;;18.70;99.90;;;;;;5091115;28;20444;-78
2023/09/11 01:10:06;;;;;;;22.33;8.77;;;18.70;99.90;;;;;;5091228;28;20444;-80
2023/09/11 01:12:36;;;;;;;23.70;8.63;;;18.60;99.90;;;;;;5090128;28;21010;-81
2023/09/11 01:15:04;;;;;;;21.13;8.77;;;18.60;99.90;;;;;;5090666;28;20491;-80
2023/09/11 01:17:36;;;;;;;23.33;9.07;;;18.60;99.90;;;;;;5090547;28;20957;-79
2023/09/11 01:20:35;;;;;;;29.83;8.70;;;18.50;99.90;;;;;;5090534;28;20450;-78
2023/09/11 01:23:37;;;;;;;27.30;9.03;;;18.50;99.90;;;;;;5090784;28;20523;-81
2023/09/11 01:26:18;;;;;;;24.13;9.03;;;18.50;99.90;;;;;;5090034;28;20469;-80
2023/09/11 01:29:13;;;;;;;30.30;9.23;;;18.50;99.90;;;;;;5090603;28;20457;-79
2023/09/11 01:31:43;;;;;;;20.80;8.27;;;18.50;99.90;;;;;;5089166;28;20468;-80
2023/09/11 01:34:10;;;;;;;17.80;8.87;;;18.40;99.90;;;;;;5088333;28;20513;-80
2023/09/11 01:36:36;;;;;;;20.70;8.80;;;18.30;99.90;;;;;;5088785;28;21076;-81
2023/09/11 01:39:04;;;;;;;25.10;9.07;;;18.30;99.90;;;;;;5090498;28;20430;-78
2023/09/11 01:41:34;;;;;;;29.27;9.00;;;18.30;99.90;;;;;;5089116;28;20446;-79
2023/09/11 01:44:10;;;;;;;28.63;8.93;;;18.40;99.90;;;;;;5090260;28;20451;-78
2023/09/11 01:46:38;;;;;;;23.83;8.87;;;18.30;99.90;;;;;;5081351;28;20455;-79
2023/09/11 01:49:07;;;;;;;34.83;10.40;;;18.20;99.90;;;;;;5090219;28;20444;-79
2023/09/11 01:51:37;;;;;;;25.07;9.30;;;18.20;99.90;;;;;;5090218;28;20511;-78
2023/09/11 01:54:04;;;;;;;22.37;8.70;;;18.20;99.90;;;;;;5090798;28;20456;-80
2023/09/11 01:56:31;;;;;;;20.83;9.70;;;18.20;99.90;;;;;;5089887;28;20487;-80
2023/09/11 01:58:58;;;;;;;23.20;8.60;;;18.20;99.90;;;;;;5082667;28;20443;-79
2023/09/11 02:01:26;;;;;;;17.77;8.80;;;18.30;99.90;;;;;;5090682;28;20472;-80
2023/09/11 02:03:54;;;;;;;22.40;9.07;;;18.20;99.90;;;;;;5090342;28;20455;-79
2023/09/11 02:06:21;;;;;;;17.37;8.47;;;18.10;99.90;;;;;;5091390;28;20427;-79
2023/09/11 02:08:47;;;;;;;20.43;9.00;;;18.10;99.90;;;;;;5091316;28;20525;-81
2023/09/11 02:11:14;;;;;;;27.90;10.27;;;18.00;99.90;;;;;;5090746;28;20471;-80
2023/09/11 02:13:41;;;;;;;21.70;10.13;;;18.10;99.90;;;;;;5082646;28;20425;-80
2023/09/11 02:16:08;;;;;;;28.93;10.27;;;18.00;99.90;;;;;;5090501;28;20501;-80
2023/09/11 02:18:35;;;;;;;26.83;10.10;;;18.10;99.90;;;;;;5091454;28;20877;-79
2023/09/11 02:21:03;;;;;;;30.67;10.33;;;18.00;99.90;;;;;;5092016;28;20472;-79
2023/09/11 02:23:29;;;;;;;23.33;9.70;;;18.00;99.90;;;;;;5090633;28;20431;-78
2023/09/11 02:25:56;;;;;;;16.37;8.90;;;18.10;99.90;;;;;;5089927;28;20455;-80
2023/09/11 02:28:23;;;;;;;22.33;9.80;;;18.00;99.90;;;;;;5090268;28;20436;-81
2023/09/11 02:30:50;;;;;;;25.90;9.50;;;18.00;99.90;;;;;;5089552;28;20444;-79
2023/09/11 02:33:17;;;;;;;28.77;9.70;;;18.10;99.90;;;;;;5089784;28;20445;-81
2023/09/11 02:35:44;;;;;;;17.57;9.13;;;17.90;99.90;;;;;;5090121;28;20479;-79
2023/09/11 02:38:12;;;;;;;18.30;9.43;;;17.90;99.90;;;;;;5089671;28;20451;-78
2023/09/11 02:40:39;;;;;;;25.60;9.30;;;17.90;99.90;;;;;;5089064;28;20443;-80
2023/09/11 02:43:06;;;;;;;21.53;8.63;;;17.80;99.90;;;;;;5089222;28;20513;-79
2023/09/11 02:45:32;;;;;;;30.20;9.67;;;17.90;99.90;;;;;;5088765;28;20459;-81
2023/09/11 02:47:59;;;;;;;20.07;10.10;;;17.80;99.90;;;;;;5087896;28;20513;-78
2023/09/11 02:50:26;;;;;;;25.47;10.20;;;17.70;99.90;;;;;;5089123;28;20454;-80
2023/09/11 02:52:52;;;;;;;21.43;9.50;;;17.70;99.90;;;;;;5090020;28;20475;-79
2023/09/11 02:55:20;;;;;;;34.97;10.40;;;17.70;99.90;;;;;;5089809;28;21079;-78
2023/09/11 02:57:47;;;;;;;22.33;10.00;;;17.60;99.90;;;;;;5090354;28;20406;-82
2023/09/11 03:00:14;;;;;;;23.80;9.30;;;17.50;99.90;;;;;;5090874;28;20517;-78
2023/09/11 03:02:41;;;;;;;19.63;8.83;;;17.50;99.90;;;;;;5090516;28;20467;-78
2023/09/11 03:05:08;;;;;;;20.73;9.40;;;17.50;99.90;;;;;;5089921;28;20479;-78
2023/09/11 03:07:34;;;;;;;22.30;9.70;;;17.50;99.90;;;;;;5090231;28;20455;-79
2023/09/11 03:10:03;;;;;;;27.43;10.30;;;17.60;99.90;;;;;;5090922;28;20435;-79
2023/09/11 03:12:31;;;;;;;27.17;9.30;;;17.50;99.90;;;;;;5091260;28;20475;-81
2023/09/11 03:15:03;;;;;;;23.00;9.90;;;17.50;99.90;;;;;;5091654;28;20475;-81
2023/09/11 03:17:29;;;;;;;20.40;9.13;;;17.50;99.90;;;;;;5093049;28;20464;-79
2023/09/11 03:19:56;;;;;;;30.73;8.93;;;17.50;99.90;;;;;;5087725;28;20416;-79
2023/09/11 03:22:23;;;;;;;19.40;9.63;;;17.50;99.90;;;;;;5091226;28;20534;-80
2023/09/11 03:24:50;;;;;;;24.20;9.33;;;17.40;99.90;;;;;;5093841;28;20447;-78
2023/09/11 03:27:17;;;;;;;19.67;8.27;;;17.40;99.90;;;;;;5093774;28;20428;-82
2023/09/11 03:29:45;;;;;;;17.67;9.73;;;17.30;99.90;;;;;;5093688;28;20451;-80
2023/09/11 03:32:11;;;;;;;21.00;8.43;;;17.30;99.90;;;;;;5093690;28;20463;-79
2023/09/11 03:34:38;;;;;;;23.10;10.60;;;17.30;99.90;;;;;;5093770;28;20478;-80
2023/09/11 03:37:05;;;;;;;24.40;10.03;;;17.10;99.90;;;;;;5094160;28;20509;-81
2023/09/11 03:39:31;;;;;;;29.43;10.17;;;17.20;99.90;;;;;;5094617;28;20905;-81
2023/09/11 03:41:58;;;;;;;27.73;11.77;;;17.10;99.90;;;;;;5093307;28;20476;-81
2023/09/11 03:44:25;;;;;;;28.23;10.07;;;17.10;99.90;;;;;;5094311;28;20430;-80
2023/09/11 03:46:53;;;;;;;22.57;9.50;;;17.00;99.90;;;;;;5094421;28;20426;-79
2023/09/11 03:49:20;;;;;;;19.63;9.60;;;17.00;99.90;;;;;;5094877;28;20418;-79
2023/09/11 03:51:46;;;;;;;21.53;9.90;;;17.00;99.90;;;;;;5094930;28;20511;-79
2023/09/11 03:54:13;;;;;;;22.03;10.70;;;17.00;99.90;;;;;;5094725;28;20479;-81
2023/09/11 03:56:40;;;;;;;26.30;10.77;;;16.90;99.90;;;;;;5094613;28;20511;-78
2023/09/11 03:59:06;;;;;;;32.57;10.90;;;16.80;99.90;;;;;;5094317;28;20434;-78
2023/09/11 04:01:33;;;;;;;23.80;9.50;;;16.90;99.90;;;;;;5093529;28;20500;-80
2023/09/11 04:04:01;;;;;;;17.90;10.10;;;16.90;99.90;;;;;;5093883;28;20519;-81
2023/09/11 04:06:28;;;;;;;28.00;9.87;;;16.80;99.90;;;;;;5093253;28;20419;-81
2023/09/11 04:08:54;;;;;;;23.83;9.97;;;16.80;99.90;;;;;;5092158;28;20422;-78
2023/09/11 04:11:23;;;;;;;21.10;10.10;;;16.80;99.90;;;;;;5092182;28;20433;-78
2023/09/11 04:13:49;;;;;;;22.33;9.80;;;16.80;99.90;;;;;;5085162;28;20432;-78
2023/09/11 04:16:16;;;;;;;19.43;10.17;;;16.70;99.90;;;;;;5092908;28;20805;-79
2023/09/11 04:18:43;;;;;;;20.43;10.17;;;16.70;99.90;;;;;;5093675;28;20526;-80
2023/09/11 04:21:11;;;;;;;25.27;10.27;;;16.70;99.90;;;;;;5094203;28;20505;-79
2023/09/11 04:23:38;;;;;;;23.27;9.80;;;16.60;99.90;;;;;;5090338;28;20437;-78
2023/09/11 04:26:06;;;;;;;21.70;11.43;;;16.70;99.90;;;;;;5087804;28;20411;-80
2023/09/11 04:28:33;;;;;;;18.33;9.80;;;16.70;99.90;;;;;;5093509;28;20519;-78
2023/09/11 04:31:00;;;;;;;16.50;9.87;;;16.60;99.90;;;;;;5092483;28;20441;-78
2023/09/11 04:33:27;;;;;;;22.67;9.83;;;16.60;99.90;;;;;;5092251;28;20414;-79
2023/09/11 04:35:54;;;;;;;19.50;10.10;;;16.60;99.90;;;;;;5091945;28;20465;-81
2023/09/11 04:38:22;;;;;;;27.53;10.37;;;16.60;99.90;;;;;;5093458;28;20440;-79
2023/09/11 04:40:49;;;;;;;28.93;10.50;;;;;;;;;;5093142;28;20418;-79
2023/09/11 04:43:15;;;;;;;26.00;10.70;;;16.60;99.90;;;;;;5092331;28;20448;-80
2023/09/11 04:45:42;;;;;;;19.97;10.03;;;16.60;99.90;;;;;;5093266;28;20447;-80
2023/09/11 04:48:09;;;;;;;36.50;11.93;;;16.60;99.90;;;;;;5092510;28;20418;-79
2023/09/11 04:50:36;;;;;;;21.53;11.93;;;16.60;99.90;;;;;;5091107;28;20459;-81
2023/09/11 04:53:02;;;;;;;40.30;11.83;;;16.60;99.90;;;;;;5091974;28;20440;-79
2023/09/11 04:55:30;;;;;;;28.33;10.80;;;16.60;99.90;;;;;;5090952;28;20529;-79
2023/09/11 04:57:57;;;;;;;26.87;11.70;;;16.60;99.90;;;;;;5082106;28;20455;-79
2023/09/11 05:00:26;;;;;;;28.97;12.17;;;16.60;99.90;;;;;;5089991;28;20466;-79
2023/09/11 05:02:52;;;;;;;32.57;11.90;;;16.50;99.90;;;;;;5089812;28;20475;-81
2023/09/11 05:05:19;;;;;;;31.03;11.60;;;16.60;99.90;;;;;;5090312;28;20545;-81
2023/09/11 05:07:46;;;;;;;35.37;12.03;;;16.60;99.90;;;;;;5092067;28;20462;-79
2023/09/11 05:10:14;;;;;;;27.43;11.33;;;16.60;99.90;;;;;;5090892;28;20443;-78
2023/09/11 05:12:42;;;;;;;32.57;12.10;;;16.60;99.90;;;;;;5091538;28;20513;-81
2023/09/11 05:15:09;;;;;;;32.93;11.40;;;16.60;99.90;;;;;;5075616;28;20427;-80
2023/09/11 05:17:36;;;;;;;30.53;12.77;;;16.60;99.90;;;;;;5090941;28;20464;-79
2023/09/11 05:20:06;;;;;;;45.47;13.50;;;16.70;99.90;;;;;;5092315;28;20456;-78
2023/09/11 05:22:33;;;;;;;31.83;12.10;;;16.70;99.90;;;;;;5089598;28;20495;-77
2023/09/11 05:25:00;;;;;;;20.83;11.40;;;16.70;99.90;;;;;;5073723;28;20835;-78
2023/09/11 05:27:28;;;;;;;27.50;10.47;;;16.80;99.90;;;;;;5073830;28;20452;-77
2023/09/11 05:29:56;;;;;;;35.93;11.17;;;16.90;99.90;;;;;;5073393;28;20434;-77
2023/09/11 05:32:23;;;;;;;29.57;12.43;;;16.90;99.90;;;;;;5072549;28;20442;-77
2023/09/11 05:34:49;;;;;;;30.17;11.83;;;17.00;99.90;;;;;;5073183;28;20426;-77
2023/09/11 05:37:16;;;;;;;23.43;11.00;;;17.20;99.90;;;;;;5079212;28;20545;-79
2023/09/11 05:39:43;;;;;;;25.73;11.57;;;17.40;99.90;;;;;;5080790;28;20419;-77
2023/09/11 05:42:10;;;;;;;29.57;12.07;;;17.60;99.90;;;;;;5073360;28;20495;-76
2023/09/11 05:44:37;;;;;;;21.07;11.40;;;17.80;99.90;;;;;;5073183;28;20919;-77
2023/09/11 05:47:06;;;;;;;45.57;11.20;;;18.00;99.90;;;;;;5073049;28;20857;-77
2023/09/11 05:49:32;;;;;;;31.97;12.23;;;18.30;99.90;;;;;;5072641;28;20563;-77
2023/09/11 05:51:59;;;;;;;34.03;11.90;;;18.50;99.90;;;;;;5073211;28;20467;-77
2023/09/11 05:54:26;;;;;;;24.97;11.70;;;18.70;99.90;;;;;;5073277;28;20459;-77
2023/09/11 05:56:53;;;;;;;27.67;10.60;;;18.80;99.90;;;;;;5072815;28;20503;-77
2023/09/11 05:59:20;;;;;;;30.17;11.07;;;19.00;99.90;;;;;;5079109;28;20447;-78
2023/09/11 06:01:47;;;;;;;24.67;9.97;;;19.30;99.90;;;;;;5090494;28;20472;-78
2023/09/11 06:04:15;;;;;;;30.50;10.83;;;19.60;99.90;;;;;;5088862;28;20509;-80
2023/09/11 06:06:41;;;;;;;28.27;10.20;;;19.80;99.90;;;;;;5089933;28;20450;-78
2023/09/11 06:09:09;;;;;;;22.27;9.17;;;20.10;99.90;;;;;;5090073;28;20462;-78
2023/09/11 06:11:35;;;;;;;25.90;11.00;;;20.40;99.90;;;;;;5090821;28;20468;-78
2023/09/11 06:14:02;;;;;;;26.53;9.97;;;20.70;99.90;;;;;;5093026;28;20501;-79
2023/09/11 06:16:29;;;;;;;27.83;10.20;;;21.00;99.90;;;;;;5091650;28;20488;-81
2023/09/11 06:18:57;;;;;;;23.03;8.70;;;21.30;99.90;;;;;;5092617;28;20463;-79
2023/09/11 06:21:26;;;;;;;29.97;9.77;;;21.50;99.90;;;;;;5091350;28;20471;-78
2023/09/11 06:23:52;;;;;;;27.23;9.47;;;21.60;99.90;;;;;;5092291;28;20452;-79
2023/09/11 06:26:19;;;;;;;25.53;9.40;;;21.80;99.90;;;;;;5091223;28;20451;-81
2023/09/11 06:28:46;;;;;;;29.30;10.10;;;22.10;99.90;;;;;;5092457;28;20452;-79
2023/09/11 06:31:12;;;;;;;30.53;10.90;;;22.40;99.90;;;;;;5091845;28;20474;-79
2023/09/11 06:33:39;;;;;;;31.23;9.80;;;22.70;99.90;;;;;;5091750;28;20446;-80
2023/09/11 06:36:06;;;;;;;27.90;9.97;;;22.90;99.90;;;;;;5090807;28;20477;-79
2023/09/11 06:38:34;;;;;;;29.77;8.87;;;23.20;99.90;;;;;;5092085;28;20478;-78
2023/09/11 06:41:01;;;;;;;33.43;10.93;;;23.50;99.90;;;;;;5091847;28;20464;-79
2023/09/11 06:43:27;;;;;;;25.77;9.53;;;23.50;99.90;;;;;;5092124;28;20451;-79
2023/09/11 06:45:54;;;;;;;18.87;9.30;;;24.00;99.90;;;;;;5092327;28;20448;-80
2023/09/11 06:48:21;;;;;;;23.07;9.80;;;24.20;99.90;;;;;;5091804;28;20444;-79
2023/09/11 06:50:48;;;;;;;21.40;10.40;;;24.50;99.90;;;;;;5090872;28;20448;-79
2023/09/11 06:53:15;;;;;;;22.17;9.70;;;24.80;99.90;;;;;;5091374;28;20712;-78
2023/09/11 06:55:46;;;;;;;25.77;9.20;;;25.00;99.90;;;;;;5091209;28;20459;-79
2023/09/11 06:58:13;;;;;;;28.77;9.70;;;25.10;99.90;;;;;;5091129;28;20843;-80
2023/09/11 07:00:40;;;;;;;30.20;9.53;;;25.20;99.90;;;;;;5091334;28;20483;-78
2023/09/11 07:03:06;;;;;;;21.43;9.37;;;25.20;99.90;;;;;;5089801;28;20481;-78
2023/09/11 07:05:34;;;;;;;24.20;9.27;;;25.30;99.90;;;;;;5086317;28;20481;-79
2023/09/11 07:08:01;;;;;;;27.70;9.57;;;25.30;99.90;;;;;;5090211;28;20469;-81
2023/09/11 07:10:28;;;;;;;27.87;10.00;;;25.20;99.90;;;;;;5092694;28;20478;-79
2023/09/11 07:12:56;;;;;;;25.50;9.00;;;25.30;99.90;;;;;;5089838;28;20471;-80
2023/09/11 07:15:22;;;;;;;29.57;9.90;;;25.40;99.90;;;;;;5092111;28;20443;-79
2023/09/11 07:17:51;;;;;;;24.00;8.70;;;25.40;99.90;;;;;;5093001;28;20491;-79
2023/09/11 07:20:18;;;;;;;27.37;9.83;;;25.40;99.90;;;;;;5092744;28;21053;-81
2023/09/11 07:22:44;;;;;;;19.10;8.27;;;25.50;99.90;;;;;;5090198;28;20497;-79
2023/09/11 07:25:14;;;;;;;28.13;10.00;;;25.50;99.90;;;;;;5090988;28;20447;-79
2023/09/11 07:27:41;;;;;;;27.87;9.73;;;25.60;99.90;;;;;;5090546;28;20516;-78
2023/09/11 07:30:10;;;;;;;26.63;9.43;;;25.70;99.90;;;;;;5090770;28;20466;-79
2023/09/11 07:32:37;;;;;;;30.43;9.63;;;25.90;99.90;;;;;;5090018;28;20452;-79
2023/09/11 07:35:04;;;;;;;33.93;8.70;;;26.00;99.90;;;;;;5090529;28;20451;-79
2023/09/11 07:37:31;;;;;;;26.93;9.53;;;26.10;99.90;;;;;;5089334;28;20522;-81
2023/09/11 07:39:58;;;;;;;27.07;8.87;;;26.20;99.90;;;;;;5090406;28;20517;-78
2023/09/11 07:42:25;;;;;;;29.87;8.63;;;26.30;99.90;;;;;;5092704;28;20456;-80
2023/09/11 07:44:52;;;;;;;23.67;9.10;;;26.30;99.90;;;;;;5095423;28;20444;-81
2023/09/11 07:47:20;;;;;;;28.70;9.40;;;26.30;99.90;;;;;;5093476;28;20482;-82
2023/09/11 07:49:47;;;;;;;31.93;8.30;;;26.20;99.90;;;;;;5090736;28;20453;-78
2023/09/11 07:52:15;;;;;;;34.60;9.80;;;26.40;99.90;;;;;;5090825;28;20472;-79
2023/09/11 07:54:42;;;;;;;30.67;9.80;;;26.50;99.90;;;;;;5092497;28;20509;-81
2023/09/11 07:57:08;;;;;;;21.17;10.23;;;26.70;99.90;;;;;;5092034;28;20487;-80
2023/09/11 07:59:35;;;;;;;25.17;9.83;;;26.90;99.90;;;;;;5092143;28;20552;-79
2023/09/11 08:02:02;;;;;;;38.33;10.57;;;26.90;99.90;;;;;;5094691;28;20471;-80
2023/09/11 08:04:30;;;;;;;21.00;8.97;;;26.80;99.90;;;;;;5095303;28;20455;-79
2023/09/11 08:06:57;;;;;;;33.27;9.63;;;26.80;99.90;;;;;;5094637;28;20436;-80
2023/09/11 08:09:23;;;;;;;25.73;10.40;;;26.90;99.90;;;;;;5094077;28;20500;-79
2023/09/11 08:11:50;;;;;;;30.43;9.67;;;27.10;99.90;;;;;;5094380;28;20467;-79
2023/09/11 08:14:17;;;;;;;26.60;9.47;;;27.10;99.90;;;;;;5095203;28;20517;-78
2023/09/11 08:16:44;;;;;;;26.83;9.67;;;26.90;99.90;;;;;;5086957;28;20479;-80
2023/09/11 08:19:10;;;;;;;24.20;10.00;;;26.70;99.90;;;;;;5094109;28;20447;-81
2023/09/11 08:21:39;;;;;;;30.20;9.60;;;26.60;99.90;;;;;;5093598;28;20508;-78
2023/09/11 08:24:06;;;;;;;26.53;9.13;;;26.80;99.90;;;;;;5094929;28;20451;-80
2023/09/11 08:26:33;;;;;;;23.10;9.50;;;27.10;99.90;;;;;;5093360;28;20460;-81
2023/09/11 08:29:02;;;;;;;26.63;9.13;;;27.10;99.90;;;;;;5094624;28;20463;-78
2023/09/11 08:31:29;;;;;;;30.73;11.10;;;27.10;99.90;;;;;;5096013;28;20494;-81
2023/09/11 08:33:56;;;;;;;20.93;9.20;;;27.00;99.90;;;;;;5095514;28;20451;-78
2023/09/11 08:36:23;;;;;;;32.20;10.30;;;26.90;99.90;;;;;;5096020;28;20482;-80
2023/09/11 08:38:51;;;;;;;23.77;9.77;;;26.80;99.90;;;;;;5095666;28;20487;-79
2023/09/11 08:41:20;;;;;;;28.07;10.40;;;26.60;99.90;;;;;;5095083;28;20463;-78
2023/09/11 08:43:46;;;;;;;24.33;9.30;;;26.60;99.90;;;;;;5095152;28;20447;-79
2023/09/11 08:46:16;;;;;;;19.07;8.87;;;26.60;99.90;;;;;;5093423;28;20444;-80
2023/09/11 08:48:45;;;;;;;25.90;8.50;;;27.00;99.90;;;;;;5095082;28;20463;-79
2023/09/11 08:51:17;;;;;;;19.87;9.33;;;27.40;99.90;;;;;;5093962;28;20587;-78
2023/09/11 08:53:46;;;;;;;29.37;9.20;;;27.60;99.90;;;;;;5091523;28;20460;-80
2023/09/11 08:56:14;;;;;;;25.10;7.77;;;27.90;99.90;;;;;;5093126;28;20451;-79
2023/09/11 08:58:42;;;;;;;28.83;10.13;;;28.10;99.90;;;;;;5093449;28;20487;-79
2023/09/11 09:01:09;;;;;;;28.73;8.37;;;28.30;99.90;;;;;;5091920;28;20479;-80
2023/09/11 09:03:38;;;;;;;31.80;8.90;;;27.90;99.90;;;;;;5093666;28;20455;-79
2023/09/11 09:06:06;;;;;;;26.40;10.23;;;28.00;99.90;;;;;;5090952;28;20459;-80
2023/09/11 09:08:34;;;;;;;18.60;8.67;;;27.60;99.90;;;;;;5093753;28;20447;-79
2023/09/11 09:11:01;;;;;;;28.23;8.90;;;27.60;99.90;;;;;;5092035;28;20467;-78
2023/09/11 09:13:34;;;;;;;21.60;9.73;;;27.90;99.90;;;;;;5086242;28;20435;-79
2023/09/11 09:16:01;;;;;;;27.47;9.33;;;28.30;99.90;;;;;;5094625;28;20456;-81
2023/09/11 09:18:29;;;;;;;22.17;8.93;;;28.60;99.90;;;;;;5095485;28;20506;-79
2023/09/11 09:20:56;;;;;;;24.20;9.17;;;28.50;99.90;;;;;;5093290;28;20493;-80
2023/09/11 09:23:32;;;;;;;23.53;8.90;;;28.50;99.90;;;;;;5092897;28;20455;-78
2023/09/11 09:26:04;;;;;;;24.37;9.40;;;28.80;99.90;;;;;;5093422;28;20465;-79
2023/09/11 09:28:33;;;;;;;22.77;8.07;;;28.70;99.90;;;;;;5092878;28;20450;-78
2023/09/11 09:31:00;;;;;;;18.53;8.20;;;28.50;99.90;;;;;;5096002;28;20455;-83
2023/09/11 09:33:28;;;;;;;22.57;9.90;;;28.50;99.90;;;;;;5093551;28;20451;-81
2023/09/11 09:35:55;;;;;;;17.83;7.50;;;28.40;99.90;;;;;;5094245;28;20475;-79
2023/09/11 09:38:22;;;;;;;24.03;8.37;;;28.30;99.90;;;;;;5094502;28;20497;-79
2023/09/11 09:40:50;;;;;;;13.53;7.50;;;28.40;99.90;;;;;;5089659;28;20474;-79
2023/09/11 09:43:19;;;;;;;23.33;7.87;;;28.30;99.90;;;;;;5095220;28;20451;-80
2023/09/11 09:45:47;;;;;;;17.20;7.97;;;28.40;99.90;;;;;;5093738;28;20444;-79
2023/09/11 09:48:15;;;;;;;20.27;7.90;;;28.50;99.90;;;;;;5092514;28;20436;-81
2023/09/11 09:50:52;;;;;;;16.00;7.63;;;29.00;99.90;;;;;;5093144;28;20455;-80
2023/09/11 09:53:23;;;;;;;18.13;7.30;;;29.20;99.90;;;;;;5093930;28;20459;-81
2023/09/11 09:55:49;;;;;;;17.43;7.53;;;29.40;99.90;;;;;;5094483;28;20467;-80
2023/09/11 09:58:18;;;;;;;20.70;8.20;;;29.70;99.90;;;;;;5094391;28;20544;-80
2023/09/11 10:00:46;;;;;;;18.33;7.27;;;29.50;99.90;;;;;;5093043;28;20439;-80
2023/09/11 10:03:13;;;;;;;18.17;7.00;;;29.50;99.90;;;;;;5091312;28;20444;-81
2023/09/11 10:05:41;;;;;;;17.57;7.60;;;29.60;99.90;;;;;;5091770;28;20439;-80
2023/09/11 10:08:08;;;;;;;17.83;7.50;;;29.70;99.90;;;;;;5093775;28;20436;-81
2023/09/11 10:10:35;;;;;;;12.70;6.83;;;29.80;99.90;;;;;;5095424;28;20474;-79
2023/09/11 10:13:06;;;;;;;20.63;7.10;;;29.70;99.90;;;;;;5094461;28;20452;-81
2023/09/11 10:15:35;;;;;;;14.80;6.70;;;29.80;99.90;;;;;;5094455;28;20481;-82
2023/09/11 10:18:05;;;;;;;17.80;7.10;;;30.00;99.90;;;;;;5093360;28;20479;-80
2023/09/11 10:20:33;;;;;;;14.47;6.57;;;30.10;99.90;;;;;;5093596;28;20432;-79
2023/09/11 10:23:01;;;;;;;13.47;7.00;;;30.10;99.90;;;;;;5093089;28;20467;-80
2023/09/11 10:25:29;;;;;;;20.90;6.33;;;30.30;99.90;;;;;;5094923;28;20452;-80
2023/09/11 10:27:58;;;;;;;26.37;7.43;;;30.40;99.90;;;;;;5093488;28;20436;-79
2023/09/11 10:30:32;;;;;;;16.53;5.53;;;30.30;99.90;;;;;;5093467;28;20868;-79
2023/09/11 10:33:05;;;;;;;16.40;6.57;;;30.20;99.90;;;;;;5090736;28;20459;-78
2023/09/11 10:35:39;;;;;;;12.90;6.60;;;30.30;99.90;;;;;;5091075;28;20444;-79
2023/09/11 10:38:07;;;;;;;17.53;6.93;;;30.60;99.90;;;;;;5090922;28;20494;-80
2023/09/11 10:40:35;;;;;;;15.60;6.83;;;31.10;99.90;;;;;;5087560;28;20448;-79
2023/09/11 10:43:02;;;;;;;16.27;6.53;;;31.10;99.90;;;;;;5090098;28;20448;-81
2023/09/11 10:45:30;;;;;;;22.30;5.70;;;31.20;99.90;;;;;;5092566;28;20462;-79
2023/09/11 10:47:57;;;;;;;22.53;5.47;;;31.20;99.90;;;;;;5091801;28;20431;-79
2023/09/11 10:50:29;;;;;;;15.90;6.90;;;31.30;99.90;;;;;;5090574;28;20443;-79
2023/09/11 10:52:56;;;;;;;14.83;6.00;;;31.60;99.90;;;;;;5092173;28;20460;-81
2023/09/11 10:55:24;;;;;;;18.47;5.97;;;31.80;99.90;;;;;;5092033;28;20458;-79
2023/09/11 10:57:53;;;;;;;15.03;6.33;;;31.90;99.90;;;;;;5090555;28;20475;-80
2023/09/11 11:00:22;;;;;;;18.10;6.97;;;32.00;99.90;;;;;;5091976;28;20451;-80
2023/09/11 11:02:50;;;;;;;24.43;6.80;;;31.70;99.90;;;;;;5093679;28;20539;-81
2023/09/11 11:05:16;;;;;;;16.43;6.50;;;31.70;99.90;;;;;;5094236;28;20443;-82
2023/09/11 11:07:48;;;;;;;20.77;6.67;;;32.00;99.90;;;;;;5092780;28;20478;-80
2023/09/11 11:10:17;;;;;;;13.13;6.13;;;32.30;99.90;;;;;;5094033;28;20446;-81
2023/09/11 11:12:44;;;;;;;20.43;6.23;;;32.10;99.90;;;;;;5093086;28;20471;-80
2023/09/11 11:15:21;;;;;;;19.90;5.93;;;32.10;99.90;;;;;;5093688;28;20543;-79
2023/09/11 11:18:11;;;;;;;17.17;6.07;;;32.00;99.90;;;;;;5091590;28;20483;-82
2023/09/11 11:20:38;;;;;;;22.17;6.10;;;32.00;99.90;;;;;;5093139;28;20876;-82
2023/09/11 11:23:11;;;;;;;18.07;6.57;;;31.80;99.90;;;;;;5092920;28;20462;-79
2023/09/11 11:25:41;;;;;;;17.83;6.87;;;31.60;99.90;;;;;;5090462;28;20455;-81
2023/09/11 11:28:15;;;;;;;22.37;7.50;;;31.60;99.90;;;;;;5091950;28;20427;-79
2023/09/11 11:30:43;;;;;;;21.50;6.80;;;31.60;99.90;;;;;;5090333;28;20466;-78
2023/09/11 11:33:14;;;;;;;17.60;6.77;;;31.50;99.90;;;;;;5088507;28;20863;-81
2023/09/11 11:35:44;;;;;;;16.23;6.30;;;31.50;99.90;;;;;;5090907;28;20497;-79
2023/09/11 11:38:15;;;;;;;36.17;6.90;;;31.50;99.90;;;;;;5097061;28;20475;-79
2023/09/11 11:40:42;;;;;;;20.63;6.77;;;31.60;99.90;;;;;;5097269;28;20447;-80
2023/09/11 11:43:09;;;;;;;17.93;6.03;;;31.50;99.90;;;;;;5096191;28;20458;-82
2023/09/11 11:45:38;;;;;;;21.53;5.83;;;31.30;99.90;;;;;;5097669;28;20461;-82
2023/09/11 11:48:05;;;;;;;16.50;6.30;;;31.20;99.90;;;;;;5097124;28;20443;-79
2023/09/11 11:50:32;;;;;;;17.67;6.37;;;31.40;99.90;;;;;;5096629;28;20639;-82
2023/09/11 11:52:59;;;;;;;29.37;6.00;;;31.40;99.90;;;;;;5096873;28;20467;-79
2023/09/11 11:55:27;;;;;;;20.33;6.30;;;31.50;99.90;;;;;;5097612;28;20446;-82
2023/09/11 11:57:54;;;;;;;24.03;6.50;;;31.60;99.90;;;;;;5098498;28;20471;-78
2023/09/11 12:00:21;;;;;;;21.80;5.97;;;31.60;99.90;;;;;;5097512;28;20466;-80
2023/09/11 12:02:48;;;;;;;18.10;6.77;;;31.60;99.90;;;;;;5093981;28;20475;-81
2023/09/11 12:05:15;;;;;;;18.90;6.20;;;31.60;99.90;;;;;;5095046;28;20437;-79
2023/09/11 12:07:43;;;;;;;16.23;5.90;;;31.70;99.90;;;;;;5093112;28;20443;-80
2023/09/11 12:10:10;;;;;;;20.13;5.97;;;32.20;99.90;;;;;;5097367;28;20439;-81
2023/09/11 12:12:40;;;;;;;20.53;5.97;;;32.40;99.90;;;;;;5096229;28;20493;-79
2023/09/11 12:15:08;;;;;;;22.57;7.00;;;32.30;99.90;;;;;;5097888;28;20469;-81
2023/09/11 12:17:35;;;;;;;13.03;5.93;;;32.30;99.90;;;;;;5094557;28;20481;-81
2023/09/11 12:20:15;;;;;;;23.40;5.87;;;32.40;99.90;;;;;;5098107;28;20474;-82
2023/09/11 12:22:43;;;;;;;20.50;6.60;;;32.70;99.90;;;;;;5093336;28;20479;-80
2023/09/11 12:25:10;;;;;;;19.20;6.73;;;32.70;99.90;;;;;;5094340;28;20458;-82
2023/09/11 12:27:39;;;;;;;17.73;6.13;;;32.80;99.90;;;;;;5097297;28;20452;-80
2023/09/11 12:30:07;;;;;;;18.67;6.57;;;32.70;99.90;;;;;;5087171;28;20440;-81
2023/09/11 12:32:34;;;;;;;22.17;6.10;;;32.80;99.90;;;;;;5093924;28;20451;-80
2023/09/11 12:35:01;;;;;;;20.93;5.37;;;32.70;99.90;;;;;;5088438;28;20462;-79
2023/09/11 12:37:28;;;;;;;28.67;7.20;;;32.40;99.90;;;;;;5090625;28;20438;-80
2023/09/11 12:39:55;;;;;;;16.40;5.77;;;32.50;99.90;;;;;;5090375;28;20502;-79